Time;durP1;ratioP1;P1;durP2;ratioP2;P2;SDS_P1;SDS_P2;PMS_P1;PMS_P2;Temp;Humidity;BMP_temperature;BMP_pressure;BME280_temperature;BME280_humidity;BME280_pressure;Samples;Min_cycle;Max_cycle;Signal;HPM_P1;HPM_P2
2022/10/11 00:01:36;;;;;;;8.65;3.33;;;;;;;13.16;61.79;100553.63;10388628;28;20065;-65
2022/10/11 00:06:38;;;;;;;9.38;3.15;;;;;;;12.95;61.49;100555.75;10387980;28;20678;-65
2022/10/11 00:11:40;;;;;;;7.15;2.92;;;;;;;12.80;61.01;100547.97;10389986;28;20053;-64
2022/10/11 00:16:43;;;;;;;8.82;3.00;;;;;;;12.49;61.79;100555.91;10387794;28;20048;-65
2022/10/11 00:21:45;;;;;;;12.90;2.85;;;;;;;12.18;61.50;100572.53;10389667;28;20061;-64
2022/10/11 00:26:47;;;;;;;6.63;2.75;;;;;;;11.95;61.63;100575.56;10389478;28;20057;-64
2022/10/11 00:31:48;;;;;;;11.60;2.78;;;;;;;11.80;61.85;100592.16;10389322;28;20061;-64
2022/10/11 00:36:50;;;;;;;9.35;2.55;;;;;;;11.66;61.20;100599.91;10386256;28;20056;-64
2022/10/11 00:41:51;;;;;;;10.75;2.55;;;;;;;11.54;60.89;100603.19;10387368;28;20050;-64
2022/10/11 00:47:01;;;;;;;11.73;2.80;;;;;;;11.47;61.15;100618.38;10389986;28;20391;-64
2022/10/11 00:52:11;;;;;;;11.43;2.90;;;;;;;11.34;60.91;100619.94;10373527;28;20406;-65
2022/10/11 00:57:19;;;;;;;8.93;3.47;;;;;;;11.28;61.69;100626.34;10385409;28;20491;-64
2022/10/11 01:02:22;;;;;;;13.30;2.63;;;;;;;11.16;60.33;100637.44;10388717;28;20049;-65
2022/10/11 01:07:29;;;;;;;10.70;2.85;;;;;;;11.13;61.28;100640.19;10386649;28;20049;-64
2022/10/11 01:12:34;;;;;;;11.40;3.03;;;;;;;11.16;60.86;100645.28;10387290;28;20057;-65
2022/10/11 01:17:48;;;;;;;13.32;2.40;;;;;;;10.95;59.75;100658.59;10385608;28;20406;-65
2022/10/11 01:23:18;;;;;;;20.60;3.22;;;;;;;10.79;60.53;100661.09;10382037;28;20049;-65
2022/10/11 01:28:41;;;;;;;11.88;2.95;;;;;;;10.72;60.94;100664.94;10385087;28;20041;-65
2022/10/11 01:34:02;;;;;;;15.75;2.78;;;;;;;10.48;60.19;100663.53;10387437;28;20093;-66
2022/10/11 01:39:12;;;;;;;11.27;2.47;;;;;;;10.38;61.22;100659.63;10384382;28;20493;-66
2022/10/11 01:44:14;;;;;;;10.97;2.40;;;;;;;10.11;61.31;100674.00;10385764;28;20517;-66
2022/10/11 01:49:16;;;;;;;14.10;2.85;;;;;;;9.96;62.08;100678.16;10385011;28;20448;-65
2022/10/11 01:54:46;;;;;;;11.45;2.70;;;;;;;9.81;62.81;100681.44;10384481;28;20057;-66
2022/10/11 02:00:13;;;;;;;12.40;2.55;;;;;;;9.72;62.99;100687.09;10383859;28;20096;-66
2022/10/11 02:05:24;;;;;;;10.68;2.80;;;;;;;9.63;62.93;100688.31;10393072;28;20056;-65
2022/10/11 02:10:33;;;;;;;11.95;2.53;;;;;;;9.48;62.81;100686.34;10390486;28;20084;-65
2022/10/11 02:15:39;;;;;;;14.68;2.83;;;;;;;9.48;62.46;100688.13;10391464;28;20061;-65
2022/10/11 02:20:43;;;;;;;18.58;3.13;;;;;;;9.37;63.09;100692.97;10391331;28;20512;-65
2022/10/11 02:25:46;;;;;;;12.32;2.90;;;;;;;9.26;63.32;100696.00;10391916;28;20045;-65
2022/10/11 02:30:50;;;;;;;16.90;3.17;;;;;;;9.09;64.61;100703.72;10391596;28;20061;-65
2022/10/11 02:35:59;;;;;;;14.10;3.10;;;;;;;8.88;64.89;100693.28;10392405;28;20052;-66
2022/10/11 02:41:08;;;;;;;11.75;2.88;;;;;;;8.82;64.79;100697.88;10390947;28;20041;-65
2022/10/11 02:46:11;;;;;;;16.38;2.80;;;;;;;8.79;64.47;100702.38;10390398;28;20943;-65
2022/10/11 02:51:13;;;;;;;16.17;3.28;;;;;;;8.65;64.70;100699.44;10389943;28;20053;-65
2022/10/11 02:56:15;;;;;;;13.02;2.80;;;;;;;8.58;64.96;100706.66;10388792;28;20049;-65
2022/10/11 03:01:16;;;;;;;13.18;2.85;;;;;;;8.52;64.76;100703.44;10388903;28;20045;-66
2022/10/11 03:06:18;;;;;;;16.20;3.13;;;;;;;8.54;64.81;100712.06;10384421;28;20100;-66
2022/10/11 03:11:20;;;;;;;25.00;4.22;;;;;;;8.42;64.83;100713.41;10381784;28;20049;-65
2022/10/11 03:16:21;;;;;;;16.40;3.40;;;;;;;8.23;65.29;100721.94;10389524;28;20045;-65
2022/10/11 03:21:24;;;;;;;14.90;3.13;;;;;;;8.18;65.36;100719.50;10390383;28;20061;-66
2022/10/11 03:26:26;;;;;;;16.33;3.30;;;;;;;8.05;65.84;100731.28;10393681;28;20417;-65
2022/10/11 03:31:27;;;;;;;10.52;3.08;;;;;;;8.00;65.96;100733.19;10393005;28;20057;-66
2022/10/11 03:36:29;;;;;;;15.27;3.00;;;;;;;7.82;65.84;100731.25;10393409;28;20050;-65
2022/10/11 03:41:31;;;;;;;18.25;3.30;;;;;;;7.80;66.26;100746.06;10392696;28;20064;-65
2022/10/11 03:46:33;;;;;;;12.07;3.10;;;;;;;7.70;66.49;100742.97;10391317;28;20049;-65
2022/10/11 03:51:35;;;;;;;12.18;3.10;;;;;;;7.59;66.38;100754.66;10390538;28;20061;-65
2022/10/11 03:56:36;;;;;;;17.10;3.30;;;;;;;7.56;66.50;100755.59;10390765;28;20208;-65
2022/10/11 04:01:38;;;;;;;16.95;3.55;;;;;;;7.56;66.39;100758.22;10386531;28;20061;-66
2022/10/11 04:06:40;;;;;;;16.05;3.78;;;;;;;7.54;66.35;100761.75;10391575;28;20303;-66
2022/10/11 04:11:41;;;;;;;12.57;3.58;;;;;;;7.46;66.41;100764.63;10390371;28;20060;-65
2022/10/11 04:16:43;;;;;;;13.90;3.35;;;;;;;7.33;66.65;100762.47;10390669;28;20494;-66
2022/10/11 04:21:45;;;;;;;19.48;3.90;;;;;;;7.30;66.21;100779.06;10388186;28;20312;-66
2022/10/11 04:26:47;;;;;;;15.25;3.47;;;;;;;7.06;66.61;100783.28;10387793;28;20052;-67
2022/10/11 04:31:49;;;;;;;15.43;3.55;;;;;;;7.12;66.74;100784.84;10388146;28;20065;-68
2022/10/11 04:36:51;;;;;;;14.75;3.25;;;;;;;6.94;66.53;100796.66;10382988;28;20059;-65
2022/10/11 04:41:52;;;;;;;15.77;3.85;;;;;;;6.89;66.68;100793.38;10388813;28;20221;-66
2022/10/11 04:46:54;;;;;;;14.82;3.28;;;;;;;6.89;66.83;100803.78;10387601;28;20597;-66
2022/10/11 04:51:56;;;;;;;17.95;4.13;;;;;;;6.82;66.95;100801.41;10389195;28;20549;-66
2022/10/11 04:56:57;;;;;;;16.08;4.15;;;;;;;6.77;67.14;100808.50;10387763;28;20289;-66
2022/10/11 05:01:59;;;;;;;10.93;3.35;;;;;;;6.78;67.03;100810.19;10386594;28;20062;-66
2022/10/11 05:07:01;;;;;;;11.25;3.40;;;;;;;6.79;66.73;100809.31;10387582;28;20180;-65
2022/10/11 05:12:03;;;;;;;17.77;3.45;;;;;;;6.77;66.53;100817.16;10387350;28;20049;-65
2022/10/11 05:17:04;;;;;;;19.58;3.72;;;;;;;6.73;66.73;100817.28;10387340;28;20048;-65
2022/10/11 05:22:06;;;;;;;16.20;3.20;;;;;;;6.66;66.51;100815.75;10386467;28;20049;-66
2022/10/11 05:27:08;;;;;;;88.97;5.82;;;;;;;6.50;66.53;100830.97;10388385;28;20274;-66
2022/10/11 05:32:09;;;;;;;277.02;11.10;;;;;;;6.39;66.35;100829.56;10387285;28;20057;-65
2022/10/11 05:37:11;;;;;;;219.40;7.90;;;;;;;6.01;66.67;100841.81;10383261;28;20045;-66
2022/10/11 05:42:13;;;;;;;11.70;3.35;;;;;;;6.00;66.89;100853.09;10388037;28;20056;-66
2022/10/11 05:47:14;;;;;;;37.17;4.93;;;;;;;6.01;67.03;100861.75;10387170;28;20053;-66
2022/10/11 05:52:20;;;;;;;131.70;7.18;;;;;;;5.96;67.07;100867.03;10379256;28;20064;-66
2022/10/11 05:57:22;;;;;;;376.02;9.38;;;;;;;5.89;67.07;100870.72;10385285;28;20037;-67
2022/10/11 06:02:23;;;;;;;47.17;4.70;;;;;;;5.93;67.31;100876.66;10383529;28;20053;-65
2022/10/11 06:07:25;;;;;;;160.95;6.30;;;;;;;5.95;67.02;100880.94;10384802;28;20057;-67
2022/10/11 06:12:30;;;;;;;249.18;7.70;;;;;;;6.01;66.90;100887.69;10382542;28;20129;-66
2022/10/11 06:17:32;;;;;;;205.13;8.18;;;;;;;6.05;66.68;100894.50;10362443;28;20057;-66
2022/10/11 06:22:34;;;;;;;148.50;6.50;;;;;;;6.15;66.48;100896.84;10370845;28;20053;-67
2022/10/11 06:27:36;;;;;;;136.18;5.75;;;;;;;6.23;66.42;100905.28;10376744;28;20049;-66
2022/10/11 06:32:37;;;;;;;84.10;4.68;;;;;;;6.35;66.56;100906.72;10382331;28;20053;-66
2022/10/11 06:37:39;;;;;;;10.52;3.70;;;;;;;6.43;66.18;100916.94;10378470;28;20057;-66
2022/10/11 06:42:41;;;;;;;49.17;5.80;;;;;;;6.57;65.95;100917.41;10382188;28;20076;-67
2022/10/11 06:47:42;;;;;;;176.32;7.28;;;;;;;6.67;65.92;100924.03;10371540;28;20053;-66
2022/10/11 06:52:45;;;;;;;41.40;4.38;;;;;;;6.84;65.77;100934.81;10378872;28;20049;-66
2022/10/11 06:57:47;;;;;;;111.32;6.45;;;;;;;6.90;65.65;100937.22;10385091;28;20050;-66
2022/10/11 07:02:49;;;;;;;13.30;4.55;;;;;;;6.85;65.85;100933.91;10385048;28;20553;-66
2022/10/11 07:07:50;;;;;;;85.55;7.75;;;;;;;7.02;65.70;100937.72;10384621;28;20461;-66
2022/10/11 07:12:52;;;;;;;23.58;4.47;;;;;;;6.98;65.47;100943.91;10385356;28;20056;-66
2022/10/11 07:17:53;;;;;;;10.93;3.10;;;;;;;6.94;66.26;100951.84;10385704;28;20041;-65
2022/10/11 07:22:55;;;;;;;9.00;2.88;;;;;;;7.39;66.00;100954.84;10385054;28;20049;-65
2022/10/11 07:27:56;;;;;;;8.85;3.20;;;;;;;7.81;65.25;100954.34;10384297;28;20065;-71
2022/10/11 07:32:58;;;;;;;8.98;3.50;;;;;;;8.02;64.85;100955.41;10385274;28;20052;-72
2022/10/11 07:38:00;;;;;;;11.07;3.25;;;;;;;8.33;64.45;100950.03;10383805;28;20057;-72
2022/10/11 07:43:02;;;;;;;9.85;3.05;;;;;;;8.71;63.48;100944.31;10385763;28;20050;-72
2022/10/11 07:48:04;;;;;;;10.68;3.67;;;;;;;8.79;63.49;100963.19;10385809;28;20045;-72
2022/10/11 07:53:06;;;;;;;10.00;3.63;;;;;;;9.16;62.91;100963.50;10385275;28;20750;-72
2022/10/11 07:58:10;;;;;;;11.65;3.83;;;;;;;9.49;62.00;100962.22;10375848;28;20042;-74
2022/10/11 08:03:12;;;;;;;13.05;3.65;;;;;;;9.87;61.45;100954.69;10385933;28;20052;-73
2022/10/11 08:08:14;;;;;;;12.80;3.67;;;;;;;10.18;61.03;100953.34;10389157;28;20060;-73
2022/10/11 08:13:16;;;;;;;11.90;3.60;;;;;;;10.55;60.41;100959.59;10390219;28;20409;-74
2022/10/11 08:18:18;;;;;;;10.32;3.40;;;;;;;10.96;59.38;100959.50;10390765;28;20065;-73
2022/10/11 08:23:19;;;;;;;13.05;3.25;;;;;;;11.11;58.91;100966.66;10389625;28;20056;-73
2022/10/11 08:28:21;;;;;;;13.25;3.55;;;;;;;11.35;58.14;100964.72;10389447;28;20572;-74
2022/10/11 08:33:25;;;;;;;10.13;3.47;;;;;;;11.45;57.99;100965.13;10384825;28;20048;-73
2022/10/11 08:38:26;;;;;;;17.02;4.10;;;;;;;11.58;57.79;100953.16;10389275;28;20038;-75
2022/10/11 08:43:35;;;;;;;18.50;3.78;;;;;;;11.98;56.65;100961.63;10390307;28;20891;-74
2022/10/11 08:48:41;;;;;;;15.00;3.55;;;;;;;12.07;56.50;100957.69;10386058;28;20084;-74
2022/10/11 08:53:52;;;;;;;15.68;3.80;;;;;;;12.18;56.13;100957.16;10389419;28;20050;-75
2022/10/11 08:59:12;;;;;;;18.50;3.47;;;;;;;12.46;54.62;100952.25;10386782;28;20046;-73
2022/10/11 09:04:16;;;;;;;18.83;3.35;;;;;;;12.48;54.52;100948.63;10388281;28;20072;-74
2022/10/11 09:09:51;;;;;;;16.77;3.35;;;;;;;12.41;53.72;100949.88;10385679;28;20413;-75
2022/10/11 09:15:16;;;;;;;18.83;4.05;;;;;;;12.61;53.81;100954.94;10388823;28;20049;-74
2022/10/11 09:20:39;;;;;;;19.70;3.63;;;;;;;12.64;53.67;100952.13;10388876;28;20049;-74
2022/10/11 09:26:06;;;;;;;19.13;3.50;;;;;;;12.63;53.73;100953.09;10382096;28;20053;-73
2022/10/11 09:31:10;;;;;;;15.27;3.38;;;;;;;12.88;53.33;100948.22;10381430;28;20319;-74
2022/10/11 09:36:40;;;;;;;18.13;3.05;;;;;;;12.96;52.14;100948.66;10387047;28;20053;-73
2022/10/11 09:41:52;;;;;;;17.48;3.35;;;;;;;13.08;51.81;100944.53;10387337;28;20064;-74
2022/10/11 09:46:55;;;;;;;14.88;3.13;;;;;;;13.18;52.06;100944.88;10387944;28;20136;-75
2022/10/11 09:52:00;;;;;;;17.83;3.55;;;;;;;12.67;51.97;100940.63;10384679;28;20049;-73
2022/10/11 09:57:02;;;;;;;14.75;3.13;;;;;;;12.68;52.63;100947.59;10387020;28;20052;-72
2022/10/11 10:02:13;;;;;;;16.77;3.63;;;;;;;12.50;52.43;100943.28;10386415;28;20517;-73
2022/10/11 10:07:15;;;;;;;13.85;3.00;;;;;;;12.76;52.48;100948.88;10386441;28;20441;-72
2022/10/11 10:12:30;;;;;;;12.05;2.75;;;;;;;12.89;52.02;100934.19;10384777;28;20046;-73
2022/10/11 10:17:32;;;;;;;12.82;2.75;;;;;;;13.05;51.75;100933.38;10370478;28;20052;-74
2022/10/11 10:22:36;;;;;;;13.45;2.92;;;;;;;13.22;51.04;100934.13;10385347;28;20077;-72
2022/10/11 10:27:37;;;;;;;13.57;2.72;;;;;;;13.27;50.26;100926.84;10387141;28;20045;-73
2022/10/11 10:33:06;;;;;;;14.45;2.85;;;;;;;13.16;50.25;100931.84;10386119;28;20050;-72
2022/10/11 10:38:32;;;;;;;12.30;3.10;;;;;;;13.29;49.95;100926.78;10381919;28;20409;-72
2022/10/11 10:43:38;;;;;;;13.05;3.28;;;;;;;13.40;50.06;100919.13;10387200;28;20052;-72
2022/10/11 10:49:08;;;;;;;14.43;2.92;;;;;;;13.21;50.58;100918.47;10385323;28;20301;-72
2022/10/11 10:54:45;;;;;;;13.25;2.70;;;;;;;13.20;50.96;100904.47;10385759;28;20072;-72
2022/10/11 10:59:52;;;;;;;12.60;2.80;;;;;;;13.22;50.39;100907.00;10373327;28;20060;-72
2022/10/11 11:05:10;;;;;;;12.55;2.92;;;;;;;13.40;49.19;100893.72;10386089;28;20300;-73
2022/10/11 11:10:19;;;;;;;11.55;2.78;;;;;;;13.56;49.75;100896.34;10385040;28;20068;-73
2022/10/11 11:15:37;;;;;;;11.45;2.83;;;;;;;13.75;47.87;100889.09;10385831;28;20064;-73
2022/10/11 11:21:17;;;;;;;12.07;2.97;;;;;;;13.70;48.47;100885.88;10367795;28;20061;-73
2022/10/11 11:26:44;;;;;;;13.95;2.90;;;;;;;13.68;48.62;100888.59;10385681;28;20530;-72
2022/10/11 11:32:22;;;;;;;12.70;2.45;;;;;;;13.82;47.27;100881.72;10384523;28;20045;-73
2022/10/11 11:37:32;;;;;;;14.85;2.72;;;;;;;13.78;46.61;100874.00;10391474;28;20046;-73
2022/10/11 11:42:53;;;;;;;12.02;2.20;;;;;;;13.79;46.33;100874.84;10389288;28;20072;-73
2022/10/11 11:48:02;;;;;;;10.18;2.40;;;;;;;13.74;44.32;100866.38;10393643;28;20096;-72
2022/10/11 11:53:18;;;;;;;10.65;2.40;;;;;;;13.85;44.54;100866.59;10390995;28;20045;-72
2022/10/11 11:59:02;;;;;;;10.60;2.38;;;;;;;14.09;44.38;100865.16;10391215;28;20412;-72
2022/10/11 12:04:25;;;;;;;11.32;3.15;;;;;;;14.15;44.22;100862.16;10388635;28;20053;-72
2022/10/11 12:09:29;;;;;;;10.75;2.20;;;;;;;14.29;44.54;100858.69;10389420;28;20053;-74
2022/10/11 12:14:33;;;;;;;9.25;2.25;;;;;;;14.26;44.37;100851.84;10388024;28;20053;-72
2022/10/11 12:19:37;;;;;;;9.48;2.20;;;;;;;14.30;43.75;100861.25;10389337;28;20042;-73
2022/10/11 12:24:59;;;;;;;11.40;2.38;;;;;;;14.33;42.01;100853.16;10390683;28;20049;-74
2022/10/11 12:30:01;;;;;;;14.25;2.17;;;;;;;14.38;42.66;100851.09;10390326;28;20049;-74
2022/10/11 12:35:27;;;;;;;8.95;2.50;;;;;;;14.49;41.27;100842.59;10386219;28;20631;-72
2022/10/11 12:40:36;;;;;;;7.72;2.10;;;;;;;14.52;41.31;100835.34;10389170;28;20058;-73
2022/10/11 12:45:38;;;;;;;7.60;1.98;;;;;;;14.61;42.50;100827.81;10389187;28;20053;-73
2022/10/11 12:50:46;;;;;;;11.80;2.30;;;;;;;14.63;39.39;100820.66;10389506;28;20072;-74
2022/10/11 12:55:58;;;;;;;8.57;1.95;;;;;;;14.56;41.58;100817.56;10389523;28;20061;-74
2022/10/11 13:01:00;;;;;;;8.18;2.00;;;;;;;14.73;42.11;100811.25;10387798;28;20046;-74
2022/10/11 13:06:19;;;;;;;12.40;2.10;;;;;;;14.84;41.18;100811.44;10389306;28;20061;-74
2022/10/11 13:11:29;;;;;;;7.43;1.95;;;;;;;14.91;40.82;100807.44;10389171;28;20049;-74
2022/10/11 13:16:48;;;;;;;7.95;1.95;;;;;;;14.83;40.65;100802.69;10387554;28;20061;-74
2022/10/11 13:21:54;;;;;;;9.25;2.10;;;;;;;14.77;41.30;100799.56;10386374;28;20268;-74
2022/10/11 13:26:56;;;;;;;7.22;2.00;;;;;;;14.75;40.99;100790.94;10387407;28;20042;-75
2022/10/11 13:32:13;;;;;;;9.13;2.10;;;;;;;14.84;39.76;100790.34;10388020;28;20133;-75
2022/10/11 13:37:18;;;;;;;12.57;2.30;;;;;;;14.93;41.31;100787.97;10387079;28;20354;-74
2022/10/11 13:42:26;;;;;;;10.25;2.25;;;;;;;14.89;40.40;100788.25;10389283;28;20053;-74
2022/10/11 13:47:30;;;;;;;10.43;2.25;;;;;;;14.93;39.63;100787.13;10386961;28;20060;-73
2022/10/11 13:52:33;;;;;;;6.80;1.90;;;;;;;15.13;39.74;100784.03;10384989;28;21227;-73
2022/10/11 13:57:46;;;;;;;12.60;2.55;;;;;;;14.96;38.91;100781.66;10389067;28;20057;-73
2022/10/11 14:02:59;;;;;;;8.70;2.10;;;;;;;15.03;39.33;100772.41;10387723;28;20063;-74
2022/10/11 14:08:05;;;;;;;7.55;1.83;;;;;;;15.21;40.82;100771.22;10379193;28;20041;-74
2022/10/11 14:13:40;;;;;;;10.43;2.15;;;;;;;14.99;39.75;100776.19;10385081;28;20053;-74
2022/10/11 14:18:48;;;;;;;8.20;2.05;;;;;;;15.12;41.02;100771.81;10386728;28;20080;-75
2022/10/11 14:23:59;;;;;;;9.10;2.25;;;;;;;15.02;41.21;100765.47;10382251;28;20472;-75
2022/10/11 14:29:05;;;;;;;9.63;2.00;;;;;;;14.88;41.46;100768.97;10385933;28;20057;-74
2022/10/11 14:34:14;;;;;;;7.88;2.20;;;;;;;15.03;42.44;100767.13;10383250;28;20049;-75
2022/10/11 14:39:19;;;;;;;8.40;2.30;;;;;;;15.02;40.96;100762.84;10380110;28;20174;-75
2022/10/11 14:44:22;;;;;;;9.43;2.15;;;;;;;15.16;41.06;100763.59;10383529;28;20069;-76
2022/10/11 14:49:26;;;;;;;8.15;2.30;;;;;;;15.34;40.98;100761.56;10383540;28;20045;-75
2022/10/11 14:54:30;;;;;;;6.53;1.83;;;;;;;15.28;40.35;100759.34;10382290;28;20052;-74
2022/10/11 14:59:36;;;;;;;9.30;2.30;;;;;;;15.34;40.68;100761.56;10382100;28;20389;-75
2022/10/11 15:04:37;;;;;;;12.07;2.30;;;;;;;15.32;41.12;100752.91;10379196;28;20536;-75
2022/10/11 15:09:39;;;;;;;8.93;2.45;;;;;;;15.33;41.86;100749.31;10389918;28;20068;-75
2022/10/11 15:14:40;;;;;;;6.55;2.08;;;;;;;15.35;41.21;100747.41;10391929;28;20045;-75
2022/10/11 15:19:42;;;;;;;7.85;2.10;;;;;;;15.22;41.47;100749.19;10396730;28;20049;-75
2022/10/11 15:24:43;;;;;;;11.40;2.88;;;;;;;15.13;41.59;100747.16;10397614;28;20045;-75
2022/10/11 15:29:51;;;;;;;7.00;2.13;;;;;;;15.10;41.89;100742.09;10399180;28;20061;-76
2022/10/11 15:34:53;;;;;;;8.88;2.08;;;;;;;15.01;41.96;100747.97;10396511;28;20123;-75
2022/10/11 15:39:55;;;;;;;11.90;2.53;;;;;;;15.00;42.89;100744.47;10397526;28;20044;-75
2022/10/11 15:44:57;;;;;;;9.02;2.40;;;;;;;14.86;43.35;100741.88;10394296;28;20046;-76
2022/10/11 15:49:59;;;;;;;10.65;2.80;;;;;;;14.77;43.20;100744.28;10398270;28;20041;-74
2022/10/11 15:55:01;;;;;;;9.73;2.67;;;;;;;14.62;44.69;100747.88;10395991;28;20051;-75
2022/10/11 16:00:03;;;;;;;9.80;2.70;;;;;;;14.44;45.13;100752.50;10396537;28;20061;-75
2022/10/11 16:05:05;;;;;;;8.48;2.28;;;;;;;14.14;45.96;100757.88;10396656;28;20053;-75
2022/10/11 16:10:07;;;;;;;9.90;2.58;;;;;;;13.96;46.72;100748.50;10395682;28;20053;-74
2022/10/11 16:15:09;;;;;;;7.85;2.25;;;;;;;13.75;47.32;100755.03;10393896;28;20038;-76
2022/10/11 16:20:11;;;;;;;7.57;2.15;;;;;;;13.48;47.61;100761.91;10393990;28;20068;-76
2022/10/11 16:25:13;;;;;;;8.43;2.00;;;;;;;13.22;47.99;100758.13;10385617;28;20057;-75
2022/10/11 16:30:16;;;;;;;8.32;2.10;;;;;;;12.93;48.79;100759.78;10389877;28;20069;-75
2022/10/11 16:35:19;;;;;;;8.38;2.33;;;;;;;12.66;49.17;100750.81;10389851;28;20053;-76
2022/10/11 16:40:20;;;;;;;12.80;2.63;;;;;;;12.32;50.38;100755.38;10385673;28;20707;-75
2022/10/11 16:45:22;;;;;;;12.45;2.38;;;;;;;12.13;51.11;100760.72;10387131;28;20045;-75
2022/10/11 16:50:24;;;;;;;10.93;2.78;;;;;;;11.86;51.95;100762.19;10387807;28;20532;-75
2022/10/11 16:55:26;;;;;;;8.95;2.78;;;;;;;11.70;52.13;100767.34;10381351;28;20596;-75
2022/10/11 17:00:27;;;;;;;12.55;2.58;;;;;;;11.46;52.61;100770.38;10387306;28;20140;-74
2022/10/11 17:05:29;;;;;;;15.40;5.18;;;;;;;11.18;53.70;100769.13;10384617;28;20498;-75
2022/10/11 17:10:38;;;;;;;13.48;4.60;;;;;;;10.98;54.29;100773.59;10388392;28;20052;-75
2022/10/11 17:15:40;;;;;;;12.10;4.35;;;;;;;10.84;54.81;100786.47;10371541;28;20212;-75
2022/10/11 17:20:42;;;;;;;11.85;3.75;;;;;;;10.73;55.14;100784.34;10382313;28;20061;-74
2022/10/11 17:25:45;;;;;;;11.27;4.03;;;;;;;10.58;55.47;100789.47;10377529;28;20057;-74
2022/10/11 17:30:56;;;;;;;12.52;3.47;;;;;;;10.41;56.41;100791.09;10381874;28;20516;-74
2022/10/11 17:35:59;;;;;;;12.95;3.28;;;;;;;10.30;56.46;100790.72;10377418;28;20524;-73
2022/10/11 17:41:03;;;;;;;11.18;3.08;;;;;;;10.17;56.77;100788.72;10383653;28;20041;-73
2022/10/11 17:46:06;;;;;;;14.15;3.15;;;;;;;10.04;57.22;100798.00;10372513;28;20999;-64
2022/10/11 17:51:11;;;;;;;9.30;3.17;;;;;;;9.92;57.66;100799.41;10382492;28;20068;-64
2022/10/11 17:56:15;;;;;;;10.52;3.10;;;;;;;9.75;58.11;100798.44;10385462;28;20413;-65
2022/10/11 18:01:21;;;;;;;10.43;2.95;;;;;;;9.63;58.31;100811.06;10352108;28;20052;-64
2022/10/11 18:06:29;;;;;;;10.57;3.40;;;;;;;9.53;58.72;100801.91;10386790;28;20140;-64
2022/10/11 18:11:31;;;;;;;11.70;3.40;;;;;;;9.41;59.02;100805.03;10387023;28;20099;-64
2022/10/11 18:16:35;;;;;;;15.63;6.10;;;;;;;9.31;59.43;100808.94;10386688;28;20077;-65
2022/10/11 18:21:37;;;;;;;12.48;3.80;;;;;;;9.19;59.75;100808.56;10385984;28;20057;-64
2022/10/11 18:26:38;;;;;;;11.18;3.25;;;;;;;9.11;59.79;100805.41;10385444;28;20049;-64
2022/10/11 18:31:41;;;;;;;12.25;3.63;;;;;;;8.94;60.10;100806.06;10383854;28;20103;-64
2022/10/11 18:36:42;;;;;;;12.93;3.75;;;;;;;8.81;60.42;100803.09;10382423;28;20049;-64
2022/10/11 18:41:44;;;;;;;11.05;3.40;;;;;;;8.45;60.73;100807.09;10382763;28;20052;-65
2022/10/11 18:46:47;;;;;;;10.80;3.67;;;;;;;8.33;61.27;100806.69;10378814;28;20135;-64
2022/10/11 18:51:49;;;;;;;9.90;3.90;;;;;;;8.38;61.46;100807.38;10380259;28;20045;-64
2022/10/11 18:56:50;;;;;;;12.80;4.65;;;;;;;8.39;61.28;100806.47;10383910;28;20057;-64
2022/10/11 19:01:52;;;;;;;13.90;4.25;;;;;;;8.33;61.37;100804.09;10377477;28;20067;-64
2022/10/11 19:06:57;;;;;;;17.00;5.20;;;;;;;8.26;61.46;100807.84;10384790;28;20410;-64
2022/10/11 19:11:59;;;;;;;12.30;4.43;;;;;;;8.11;61.72;100801.44;10385451;28;20049;-63
2022/10/11 19:17:01;;;;;;;14.25;4.80;;;;;;;8.08;61.73;100809.31;10384746;28;20045;-64
2022/10/11 19:22:03;;;;;;;10.40;4.30;;;;;;;7.98;61.82;100808.78;10384062;28;20095;-63
2022/10/11 19:27:05;;;;;;;11.15;3.10;;;;;;;7.95;61.89;100808.06;10382639;28;20074;-63
2022/10/11 19:32:07;;;;;;;15.02;4.72;;;;;;;7.88;62.00;100810.00;10383121;28;20538;-63
2022/10/11 19:37:12;;;;;;;15.88;4.70;;;;;;;7.77;62.22;100812.13;10383562;28;20401;-64
2022/10/11 19:42:14;;;;;;;10.85;4.00;;;;;;;7.55;61.96;100823.34;10383918;28;20049;-64
2022/10/11 19:47:16;;;;;;;17.80;4.22;;;;;;;7.41;62.64;100825.53;10384520;28;20057;-64
2022/10/11 19:52:17;;;;;;;14.18;3.75;;;;;;;7.46;62.77;100829.69;10383062;28;20045;-63
2022/10/11 19:57:19;;;;;;;12.00;4.15;;;;;;;7.45;62.58;100825.38;10389041;28;20068;-63
2022/10/11 20:02:21;;;;;;;15.43;4.80;;;;;;;7.35;62.79;100829.19;10392008;28;20053;-63
2022/10/11 20:07:22;;;;;;;13.85;4.70;;;;;;;7.12;62.73;100837.72;10391555;28;20056;-63
2022/10/11 20:12:26;;;;;;;10.98;4.10;;;;;;;7.12;63.01;100829.91;10390919;28;20551;-64
2022/10/11 20:17:48;;;;;;;15.43;4.90;;;;;;;7.12;63.05;100826.47;10391336;28;20585;-65
2022/10/11 20:22:52;;;;;;;10.18;4.32;;;;;;;7.08;63.14;100833.50;10389158;28;20049;-65
2022/10/11 20:27:53;;;;;;;11.73;4.47;;;;;;;7.07;63.10;100823.16;10390504;28;20060;-64
2022/10/11 20:32:55;;;;;;;11.77;4.28;;;;;;;7.02;63.08;100832.88;10390792;28;20046;-65
2022/10/11 20:37:59;;;;;;;18.42;5.10;;;;;;;6.99;63.07;100830.34;10390646;28;20228;-64
2022/10/11 20:43:01;;;;;;;14.98;5.03;;;;;;;6.92;63.15;100832.28;10388916;28;20622;-64
2022/10/11 20:48:02;;;;;;;9.95;4.10;;;;;;;6.92;63.23;100834.00;10388272;28;20038;-65
2022/10/11 20:53:04;;;;;;;14.32;4.60;;;;;;;6.88;63.00;100833.25;10389036;28;20060;-64
2022/10/11 20:58:06;;;;;;;12.50;4.75;;;;;;;6.75;63.20;100836.28;10389694;28;20046;-64
2022/10/11 21:03:08;;;;;;;14.52;4.60;;;;;;;6.61;63.38;100834.09;10386618;28;20418;-64
2022/10/11 21:08:09;;;;;;;11.40;4.43;;;;;;;6.59;63.38;100824.66;10388660;28;20367;-64
2022/10/11 21:13:11;;;;;;;8.90;4.05;;;;;;;6.54;63.16;100826.50;10386530;28;20053;-64
2022/10/11 21:18:13;;;;;;;10.50;4.10;;;;;;;6.51;63.43;100829.22;10388340;28;20050;-62
2022/10/11 21:23:17;;;;;;;15.52;3.85;;;;;;;6.47;63.71;100820.63;10386719;28;20053;-63
2022/10/11 21:28:19;;;;;;;15.68;4.50;;;;;;;6.41;63.67;100826.00;10388876;28;20050;-63
2022/10/11 21:33:20;;;;;;;12.88;4.00;;;;;;;6.32;63.78;100826.28;10386645;28;20513;-63
2022/10/11 21:38:22;;;;;;;10.07;4.10;;;;;;;6.28;63.78;100824.66;10387983;28;20053;-63
2022/10/11 21:43:24;;;;;;;14.85;4.50;;;;;;;6.28;63.71;100816.88;10386445;28;20049;-63
2022/10/11 21:48:28;;;;;;;14.38;4.10;;;;;;;6.13;63.76;100815.53;10379867;28;20414;-63
2022/10/11 21:53:29;;;;;;;10.63;3.67;;;;;;;6.02;63.84;100819.31;10385600;28;20046;-63
2022/10/11 21:58:31;;;;;;;13.02;6.43;;;;;;;6.01;64.11;100821.06;10387646;28;20049;-63
2022/10/11 22:03:33;;;;;;;10.80;3.72;;;;;;;5.97;63.89;100821.16;10385245;28;20054;-63
2022/10/11 22:08:34;;;;;;;15.23;4.25;;;;;;;5.96;63.74;100817.72;10386002;28;20513;-63
2022/10/11 22:13:37;;;;;;;16.88;4.75;;;;;;;5.87;64.00;100817.97;10385488;28;20068;-63
2022/10/11 22:18:40;;;;;;;11.80;3.72;;;;;;;5.86;64.06;100816.25;10385619;28;20068;-63
2022/10/11 22:23:44;;;;;;;11.20;3.88;;;;;;;5.82;63.79;100819.81;10386522;28;20148;-63
2022/10/11 22:28:46;;;;;;;11.25;3.80;;;;;;;5.76;63.84;100814.78;10385802;28;20394;-62
2022/10/11 22:33:55;;;;;;;10.48;4.00;;;;;;;5.74;63.69;100810.56;10386642;28;20099;-63
2022/10/11 22:38:57;;;;;;;9.15;3.90;;;;;;;5.67;63.60;100814.19;10384267;28;20096;-63
2022/10/11 22:43:59;;;;;;;18.15;5.53;;;;;;;5.59;63.63;100808.34;10385041;28;20060;-63
2022/10/11 22:49:01;;;;;;;13.60;4.60;;;;;;;5.47;63.60;100812.13;10385532;28;20053;-62
2022/10/11 22:54:02;;;;;;;14.77;3.80;;;;;;;5.42;63.72;100808.75;10384536;28;20107;-62
2022/10/11 22:59:04;;;;;;;8.90;3.60;;;;;;;5.39;63.84;100806.25;10383950;28;20045;-63
2022/10/11 23:04:06;;;;;;;8.95;3.33;;;;;;;5.33;63.70;100804.66;10383356;28;20399;-63
2022/10/11 23:09:07;;;;;;;13.38;4.10;;;;;;;5.30;63.71;100814.25;10383732;28;20048;-63
2022/10/11 23:14:09;;;;;;;10.02;4.00;;;;;;;5.07;63.82;100804.44;10383635;28;20053;-63
2022/10/11 23:19:11;;;;;;;11.77;4.03;;;;;;;4.95;64.34;100802.13;10384729;28;20053;-63